Time;durP1;ratioP1;P1;durP2;ratioP2;P2;SDS_P1;SDS_P2;PMS_P1;PMS_P2;Temp;Humidity;BMP_temperature;BMP_pressure;BME280_temperature;BME280_humidity;BME280_pressure;Samples;Min_cycle;Max_cycle;Signal;HPM_P1;HPM_P2
2022/10/11 00:02:18;;;;;;;2.78;0.60;;;;;;;13.14;90.49;101322.41;5022414;28;20549;-70
2022/10/11 00:04:44;;;;;;;4.40;0.73;;;;;;;13.07;90.52;101314.16;5028340;28;20033;-70
2022/10/11 00:07:10;;;;;;;0.93;0.43;;;;;;;12.97;90.49;101314.66;5014483;28;20041;-71
2022/10/11 00:09:35;;;;;;;4.13;0.85;;;;;;;13.00;90.36;101324.78;5025412;28;20072;-69
2022/10/11 00:12:01;;;;;;;3.97;1.25;;;;;;;12.93;90.41;101329.28;5028460;28;20041;-70
2022/10/11 00:14:27;;;;;;;4.38;0.95;;;;;;;12.80;90.30;101331.28;5030880;28;20036;-70
2022/10/11 00:16:53;;;;;;;1.77;0.85;;;;;;;12.81;90.06;101334.78;5025261;28;20042;-70
2022/10/11 00:19:19;;;;;;;1.17;0.93;;;;;;;12.74;89.95;101348.16;5016864;28;20026;-70
2022/10/11 00:21:44;;;;;;;1.02;1.00;;;;;;;12.58;90.62;101348.94;5030324;28;20075;-70
2022/10/11 00:24:11;;;;;;;5.20;1.00;;;;;;;12.44;90.57;101345.91;5031148;28;20095;-70
2022/10/11 00:26:37;;;;;;;2.00;0.80;;;;;;;12.38;90.46;101354.63;5015115;28;20037;-70
2022/10/11 00:29:03;;;;;;;1.95;0.82;;;;;;;12.35;90.79;101353.41;5025774;28;20040;-73
2022/10/11 00:31:28;;;;;;;7.43;1.00;;;;;;;12.30;90.96;101358.28;5030203;28;20084;-71
2022/10/11 00:33:54;;;;;;;3.22;1.55;;;;;;;12.24;90.57;101356.97;5028811;28;20049;-70
2022/10/11 00:36:21;;;;;;;2.75;0.52;;;;;;;12.29;90.79;101354.78;5028096;28;20033;-70
2022/10/11 00:38:47;;;;;;;7.18;1.63;;;;;;;12.21;90.97;101368.47;5024986;28;20030;-70
2022/10/11 00:41:14;;;;;;;2.85;0.82;;;;;;;12.18;90.89;101367.25;5021034;28;20442;-70
2022/10/11 00:43:40;;;;;;;12.45;1.30;;;;;;;12.12;90.49;101363.25;5027946;28;20497;-69
2022/10/11 00:46:17;;;;;;;2.25;0.88;;;;;;;12.06;91.27;101385.47;5029190;28;20524;-70
2022/10/11 00:48:58;;;;;;;4.05;0.80;;;;;;;12.06;91.54;101371.97;5030626;28;20038;-70
2022/10/11 00:51:47;;;;;;;1.75;0.60;;;;;;;12.02;90.96;101377.25;5026227;28;20378;-70
2022/10/11 00:54:16;;;;;;;5.75;0.93;;;;;;;11.95;91.33;101377.06;5024743;28;20048;-70
2022/10/11 00:56:44;;;;;;;5.13;1.35;;;;;;;11.99;91.03;101382.56;5026897;28;20042;-70
2022/10/11 00:59:13;;;;;;;2.95;1.20;;;;;;;11.94;91.28;101388.22;5024886;28;20517;-70
2022/10/11 01:01:41;;;;;;;2.28;1.05;;;;;;;11.87;91.12;101388.00;5027927;28;20472;-70
2022/10/11 01:04:07;;;;;;;1.02;0.70;;;;;;;11.91;90.96;101386.97;5029476;28;20087;-70
2022/10/11 01:06:33;;;;;;;3.10;0.68;;;;;;;11.86;91.15;101383.75;5028634;28;20033;-69
2022/10/11 01:08:59;;;;;;;1.15;0.77;;;;;;;11.91;91.04;101396.97;5025652;28;20112;-70
2022/10/11 01:11:27;;;;;;;1.10;0.68;;;;;;;11.91;90.87;101392.38;5027138;28;20124;-69
2022/10/11 01:13:52;;;;;;;0.73;0.70;;;;;;;11.91;91.20;101388.88;5020633;28;20060;-70
2022/10/11 01:16:24;;;;;;;2.15;0.70;;;;;;;11.93;90.59;101395.53;5029298;28;20115;-70
2022/10/11 01:18:58;;;;;;;5.10;1.00;;;;;;;11.90;90.27;101390.03;5028200;28;20041;-70
2022/10/11 01:21:44;;;;;;;4.80;1.27;;;;;;;11.91;90.57;101389.69;5024710;28;20034;-70
2022/10/11 01:24:16;;;;;;;1.08;0.77;;;;;;;11.93;90.71;101397.44;5026554;28;20178;-70
2022/10/11 01:27:00;;;;;;;;;;;;;;;11.83;91.91;101392.56;5029080;28;20037;-69
2022/10/11 01:29:49;;;;;;;3.03;1.00;;;;;;;11.96;92.37;101402.16;5027308;28;19912;-70
2022/10/11 01:32:20;;;;;;;1.33;0.65;;;;;;;12.10;91.72;101395.19;5011047;28;20033;-69
2022/10/11 01:35:02;;;;;;;0.50;0.50;;;;;;;12.25;92.15;101397.13;5021386;28;20046;-70
2022/10/11 01:37:36;;;;;;;1.02;0.70;;;;;;;12.26;92.69;101411.41;5029368;28;20087;-71
2022/10/11 01:40:10;;;;;;;5.40;0.70;;;;;;;12.23;92.95;101410.19;5027390;28;20094;-70
2022/10/11 01:42:39;;;;;;;1.00;0.80;;;;;;;12.35;92.11;101404.72;5030069;28;20405;-71
2022/10/11 01:45:08;;;;;;;5.68;0.60;;;;;;;12.37;91.57;101404.38;5028934;28;20021;-70
2022/10/11 01:47:34;;;;;;;1.58;0.55;;;;;;;12.28;92.19;101401.06;5022714;28;20849;-70
2022/10/11 01:50:01;;;;;;;4.32;0.60;;;;;;;12.26;91.59;101404.13;5025086;28;20045;-71
2022/10/11 01:52:32;;;;;;;1.92;0.77;;;;;;;12.30;91.15;101409.59;5033531;23;20125;-65
2022/10/11 01:55:09;;;;;;;1.45;0.57;;;;;;;12.21;91.38;101417.09;5010047;28;20042;-65
2022/10/11 01:57:45;;;;;;;0.52;0.50;;;;;;;12.08;91.18;101424.47;5010339;28;20063;-65
2022/10/11 02:00:17;;;;;;;4.65;1.00;;;;;;;12.09;91.47;101420.63;5009554;28;20037;-65
2022/10/11 02:03:03;;;;;;;1.42;0.55;;;;;;;12.06;91.68;101423.25;5020581;28;20405;-65
2022/10/11 02:05:41;;;;;;;1.88;0.80;;;;;;;12.10;91.28;101421.44;5024155;28;20080;-66
2022/10/11 02:08:13;;;;;;;1.35;0.75;;;;;;;12.03;90.87;101424.72;5026575;28;20122;-65
2022/10/11 02:10:54;;;;;;;2.83;0.70;;;;;;;11.92;90.87;101425.56;5024804;28;20442;-65
2022/10/11 02:13:32;;;;;;;4.50;1.42;;;;;;;11.86;91.62;101421.53;5028153;28;20034;-65
2022/10/11 02:16:01;;;;;;;3.92;0.68;;;;;;;11.78;90.75;101425.97;5026824;28;20095;-64
2022/10/11 02:18:36;;;;;;;1.08;0.80;;;;;;;11.75;90.94;101423.94;5025816;28;20033;-64
2022/10/11 02:21:07;;;;;;;0.60;0.50;;;;;;;11.65;90.76;101425.19;5032275;28;20668;-64
2022/10/11 02:23:44;;;;;;;7.45;1.15;;;;;;;11.55;90.93;101422.97;5031872;28;20041;-64
2022/10/11 02:26:13;;;;;;;7.32;0.80;;;;;;;11.45;92.04;101431.53;5008551;28;20037;-64
2022/10/11 02:28:41;;;;;;;1.65;0.73;;;;;;;11.39;91.73;101432.09;5021634;28;20053;-64
2022/10/11 02:31:10;;;;;;;3.67;1.17;;;;;;;11.36;91.97;101430.88;5027565;28;20120;-63
2022/10/11 02:33:42;;;;;;;6.97;0.88;;;;;;;11.31;91.43;101433.00;5023794;28;20540;-64
2022/10/11 02:36:16;;;;;;;2.40;0.43;;;;;;;11.26;91.59;101434.06;5027027;28;20033;-63
2022/10/11 02:38:51;;;;;;;0.55;0.47;;;;;;;11.26;91.63;101444.03;5025988;28;20037;-63
2022/10/11 02:41:31;;;;;;;1.23;0.57;;;;;;;11.22;91.26;101451.25;5020160;28;20068;-63
2022/10/11 02:44:07;;;;;;;3.83;1.05;;;;;;;11.24;91.42;101443.59;5019490;28;20037;-63
2022/10/11 02:46:33;;;;;;;2.05;0.95;;;;;;;11.17;91.45;101443.38;5030964;28;20068;-63
2022/10/11 02:49:00;;;;;;;1.35;0.85;;;;;;;11.18;91.08;101445.75;5018758;28;20133;-64
2022/10/11 02:51:29;;;;;;;4.20;1.05;;;;;;;11.15;91.58;101451.03;5017955;28;20057;-64
2022/10/11 02:53:54;;;;;;;3.75;0.80;;;;;;;11.07;91.63;101449.25;5021485;28;21571;-63
2022/10/11 02:56:19;;;;;;;5.60;1.00;;;;;;;11.24;91.60;101465.16;5030506;28;20033;-64
2022/10/11 02:58:45;;;;;;;4.20;1.52;;;;;;;11.25;90.68;101461.34;5032795;28;20478;-64
2022/10/11 03:01:11;;;;;;;4.15;0.68;;;;;;;11.17;91.72;101459.56;5031302;28;20037;-64
2022/10/11 03:03:36;;;;;;;3.38;0.63;;;;;;;11.21;91.20;101465.81;5023054;28;20037;-64
2022/10/11 03:06:04;;;;;;;0.55;0.50;;;;;;;11.18;91.85;101471.91;5022564;28;20494;-64
2022/10/11 03:08:30;;;;;;;1.38;1.23;;;;;;;11.15;91.63;101475.28;5032440;28;20397;-64
2022/10/11 03:10:56;;;;;;;2.40;0.70;;;;;;;11.20;91.51;101470.47;5031818;28;20029;-63
2022/10/11 03:13:21;;;;;;;1.10;1.00;;;;;;;11.27;91.32;101475.25;5030280;28;20029;-64
2022/10/11 03:15:52;;;;;;;6.75;1.15;;;;;;;11.37;91.64;101478.28;5032069;28;20037;-64
2022/10/11 03:18:17;;;;;;;4.25;1.13;;;;;;;11.36;91.64;101482.09;5028008;28;20049;-64
2022/10/11 03:20:43;;;;;;;1.60;0.80;;;;;;;11.34;91.59;101478.19;5026430;28;20039;-64
2022/10/11 03:23:10;;;;;;;5.25;0.90;;;;;;;11.45;91.26;101482.00;5024221;28;20497;-64
2022/10/11 03:25:35;;;;;;;2.63;0.90;;;;;;;11.46;91.04;101492.44;5023409;28;20064;-63
2022/10/11 03:28:01;;;;;;;6.13;1.35;;;;;;;11.54;91.15;101490.72;5031073;28;20503;-64
2022/10/11 03:30:26;;;;;;;1.30;0.80;;;;;;;11.46;91.56;101491.63;5026707;28;20244;-64
2022/10/11 03:32:52;;;;;;;2.08;1.33;;;;;;;11.32;91.99;101493.94;5032138;28;20038;-63
2022/10/11 03:35:17;;;;;;;2.65;1.35;;;;;;;11.35;92.06;101499.41;5030471;28;20033;-64
2022/10/11 03:37:43;;;;;;;0.93;0.70;;;;;;;11.29;91.24;101502.69;5031022;28;20031;-63
2022/10/11 03:40:09;;;;;;;3.45;1.17;;;;;;;11.24;91.73;101501.00;5023814;28;20117;-64
2022/10/11 03:42:35;;;;;;;1.30;0.82;;;;;;;11.17;91.50;101514.25;5029952;28;20130;-63
2022/10/11 03:45:03;;;;;;;1.83;0.98;;;;;;;11.15;91.71;101508.41;5030753;28;20025;-64
2022/10/11 03:47:30;;;;;;;5.05;1.52;;;;;;;11.09;92.08;101511.69;5029292;28;20041;-63
2022/10/11 03:50:02;;;;;;;0.82;0.50;;;;;;;11.09;92.53;101508.97;5025770;28;20033;-64
2022/10/11 03:52:33;;;;;;;0.85;0.68;;;;;;;11.12;92.39;101517.19;5024887;28;20096;-63
2022/10/11 03:54:59;;;;;;;1.38;0.52;;;;;;;11.18;92.44;101521.22;5031026;28;20040;-64
2022/10/11 03:57:24;;;;;;;1.65;0.85;;;;;;;11.24;93.41;101536.06;5026793;28;20029;-64
2022/10/11 03:59:50;;;;;;;4.15;1.33;;;;;;;11.44;92.43;101550.56;5021048;28;20026;-64
2022/10/11 04:02:15;;;;;;;3.40;1.08;;;;;;;11.50;92.39;101547.28;5031072;28;20549;-63
2022/10/11 04:04:41;;;;;;;4.07;1.20;;;;;;;11.53;92.86;101552.00;5025749;28;20058;-64
2022/10/11 04:07:07;;;;;;;5.43;1.30;;;;;;;11.59;92.36;101556.03;5023676;28;20067;-63
2022/10/11 04:09:32;;;;;;;2.38;0.85;;;;;;;11.52;93.24;101553.13;5019578;28;20034;-63
2022/10/11 04:11:58;;;;;;;3.03;0.85;;;;;;;11.51;94.03;101559.66;5023396;28;20083;-64
2022/10/11 04:14:23;;;;;;;3.70;1.48;;;;;;;11.49;94.78;101547.63;5016845;28;20041;-64
2022/10/11 04:16:49;;;;;;;4.82;1.42;;;;;;;11.52;94.69;101545.03;5026908;28;20665;-64
2022/10/11 04:19:14;;;;;;;1.83;1.42;;;;;;;11.56;94.99;101548.63;5029724;28;20029;-64
2022/10/11 04:21:39;;;;;;;1.40;1.15;;;;;;;11.54;94.43;101552.78;5024316;28;20036;-64
2022/10/11 04:24:05;;;;;;;2.17;0.93;;;;;;;11.47;94.87;101550.66;5030216;28;20041;-64
2022/10/11 04:26:30;;;;;;;3.13;1.17;;;;;;;11.50;94.66;101549.97;5031516;28;20112;-64
2022/10/11 04:28:56;;;;;;;1.10;0.80;;;;;;;11.51;95.10;101567.75;5031307;28;20044;-64
2022/10/11 04:31:22;;;;;;;1.65;0.75;;;;;;;11.49;95.05;101566.50;5021435;28;20033;-64
2022/10/11 04:33:47;;;;;;;1.42;0.82;;;;;;;11.46;94.61;101564.47;5028970;28;20048;-64
2022/10/11 04:36:13;;;;;;;2.47;1.00;;;;;;;11.31;94.85;101571.34;5031360;28;20033;-64
2022/10/11 04:38:38;;;;;;;1.08;0.80;;;;;;;11.36;94.19;101571.09;5027079;28;20493;-63
2022/10/11 04:41:08;;;;;;;6.80;0.93;;;;;;;11.34;94.28;101567.19;5022194;28;20520;-64
2022/10/11 04:43:35;;;;;;;5.78;1.10;;;;;;;11.33;93.57;101576.38;5029588;28;20042;-64
2022/10/11 04:46:00;;;;;;;1.63;0.70;;;;;;;11.32;93.80;101575.63;5030915;28;20079;-63
2022/10/11 04:48:26;;;;;;;2.70;1.23;;;;;;;11.27;92.88;101572.31;5029661;28;20037;-63
2022/10/11 04:50:51;;;;;;;2.42;1.02;;;;;;;11.18;93.21;101577.03;5014910;28;20109;-64
2022/10/11 04:53:19;;;;;;;1.10;0.60;;;;;;;11.13;93.60;101574.59;5010577;28;20046;-64
2022/10/11 04:55:57;;;;;;;1.65;0.85;;;;;;;11.08;93.48;101578.28;5010286;28;20406;-64
2022/10/11 04:58:22;;;;;;;1.73;0.65;;;;;;;11.04;93.45;101579.28;5022015;28;20026;-64
2022/10/11 05:00:48;;;;;;;0.85;0.50;;;;;;;11.05;93.56;101594.34;5022325;28;20053;-64
2022/10/11 05:03:13;;;;;;;7.28;0.80;;;;;;;11.01;93.68;101590.72;5028265;28;20091;-64
2022/10/11 05:05:38;;;;;;;1.38;1.08;;;;;;;11.04;93.54;101595.44;5030692;28;20540;-64
2022/10/11 05:08:04;;;;;;;2.90;1.00;;;;;;;11.07;93.50;101594.78;5029038;28;20051;-64
2022/10/11 05:10:29;;;;;;;1.58;0.85;;;;;;;11.07;92.98;101602.88;5028322;28;20041;-64
2022/10/11 05:12:54;;;;;;;1.50;0.80;;;;;;;11.06;93.42;101603.97;5026308;28;20037;-63
2022/10/11 05:15:20;;;;;;;4.50;0.80;;;;;;;11.06;93.14;101609.38;5028090;28;20029;-64
2022/10/11 05:17:45;;;;;;;10.25;1.27;;;;;;;11.10;93.47;101613.78;5029586;28;20553;-63
2022/10/11 05:20:13;;;;;;;3.35;0.85;;;;;;;11.08;93.14;101617.91;5028546;28;20033;-64
2022/10/11 05:22:39;;;;;;;1.60;0.63;;;;;;;11.00;93.07;101616.88;5015155;28;20387;-64
2022/10/11 05:25:04;;;;;;;3.10;0.90;;;;;;;10.96;93.23;101615.19;5029002;28;20171;-64
2022/10/11 05:27:30;;;;;;;2.45;1.00;;;;;;;10.92;92.83;101614.31;5027632;28;20033;-63
2022/10/11 05:29:55;;;;;;;1.90;1.00;;;;;;;10.93;93.34;101616.66;5015843;28;20033;-63
2022/10/11 05:32:21;;;;;;;2.35;0.95;;;;;;;10.92;93.26;101623.16;5026104;28;20036;-64
2022/10/11 05:34:46;;;;;;;6.00;0.93;;;;;;;10.94;93.19;101628.22;5007203;28;20044;-64
2022/10/11 05:37:12;;;;;;;1.55;0.75;;;;;;;10.95;93.44;101629.78;5021954;28;20068;-64
2022/10/11 05:39:37;;;;;;;4.50;1.90;;;;;;;10.82;93.56;101637.84;5027789;28;20033;-64
2022/10/11 05:42:02;;;;;;;0.90;0.70;;;;;;;10.81;93.51;101638.97;5029480;28;20030;-64
2022/10/11 05:44:28;;;;;;;2.05;1.05;;;;;;;10.91;93.58;101651.22;5029395;28;20037;-63
2022/10/11 05:46:53;;;;;;;2.88;0.80;;;;;;;10.97;92.56;101655.31;5022496;28;20061;-63
2022/10/11 05:49:19;;;;;;;2.25;1.17;;;;;;;10.99;92.38;101655.75;5019285;28;20022;-64
2022/10/11 05:51:44;;;;;;;2.35;1.00;;;;;;;10.99;93.01;101660.34;5026523;28;20135;-64
2022/10/11 05:54:10;;;;;;;1.88;1.00;;;;;;;11.03;92.69;101661.25;5027032;28;20064;-63
2022/10/11 05:56:35;;;;;;;3.67;1.08;;;;;;;11.02;92.47;101665.06;5021444;28;20038;-64
2022/10/11 05:59:00;;;;;;;1.23;0.90;;;;;;;11.00;93.10;101670.00;5033376;28;20505;-64
2022/10/11 06:01:26;;;;;;;2.60;1.20;;;;;;;11.01;92.92;101666.19;5032060;28;20068;-64
2022/10/11 06:03:52;;;;;;;4.45;1.20;;;;;;;10.97;93.25;101674.16;5023528;28;20025;-64
2022/10/11 06:06:19;;;;;;;6.05;1.50;;;;;;;11.02;93.09;101678.53;5034978;28;20100;-64
2022/10/11 06:08:48;;;;;;;1.70;1.17;;;;;;;11.08;93.03;101677.22;5038132;28;20092;-64
2022/10/11 06:11:24;;;;;;;2.03;1.30;;;;;;;11.05;92.81;101680.59;5028363;28;20025;-64
2022/10/11 06:13:52;;;;;;;3.63;1.20;;;;;;;10.97;93.19;101679.56;5034228;28;20049;-64
2022/10/11 06:16:17;;;;;;;0.75;0.70;;;;;;;10.96;93.33;101677.16;5033060;28;20120;-64
2022/10/11 06:18:43;;;;;;;1.80;1.20;;;;;;;11.05;93.53;101686.78;5029548;28;20481;-64
2022/10/11 06:21:08;;;;;;;3.42;1.20;;;;;;;11.02;93.41;101686.63;5023840;28;20052;-63
2022/10/11 06:23:36;;;;;;;1.80;1.20;;;;;;;11.09;93.71;101684.19;5027552;28;20031;-63
2022/10/11 06:26:05;;;;;;;3.33;2.10;;;;;;;11.01;93.58;101695.84;5034427;28;20083;-63
2022/10/11 06:28:31;;;;;;;3.55;1.30;;;;;;;10.97;93.85;101693.03;5031580;28;20033;-64
2022/10/11 06:30:57;;;;;;;2.50;1.50;;;;;;;11.08;93.73;101693.38;5033692;28;20033;-64
2022/10/11 06:33:24;;;;;;;1.80;1.20;;;;;;;10.99;94.75;101695.38;5029333;28;20375;-64
2022/10/11 06:35:56;;;;;;;1.83;1.20;;;;;;;10.92;95.00;101695.91;5027254;28;20476;-64
2022/10/11 06:38:22;;;;;;;4.72;1.08;;;;;;;10.87;95.04;101693.44;5027063;28;20382;-64
2022/10/11 06:40:47;;;;;;;3.95;1.38;;;;;;;10.97;95.21;101700.31;5027708;28;20113;-64
2022/10/11 06:43:13;;;;;;;3.03;1.45;;;;;;;11.08;95.17;101709.56;5024662;28;20061;-64
2022/10/11 06:45:38;;;;;;;5.13;1.50;;;;;;;11.12;94.88;101716.66;5017691;28;20494;-63
2022/10/11 06:48:04;;;;;;;2.13;1.05;;;;;;;11.25;94.37;101709.38;5020426;28;20405;-63
2022/10/11 06:50:31;;;;;;;3.97;1.50;;;;;;;11.26;93.96;101713.69;5028627;28;20120;-64
2022/10/11 06:52:57;;;;;;;3.53;1.90;;;;;;;11.31;94.43;101713.44;5030536;28;20087;-64
2022/10/11 06:55:23;;;;;;;1.35;0.93;;;;;;;11.45;94.07;101716.66;5033321;28;20094;-63
2022/10/11 06:57:48;;;;;;;5.35;1.42;;;;;;;11.47;93.85;101717.09;5024820;28;20033;-64
2022/10/11 07:00:14;;;;;;;8.07;1.48;;;;;;;11.52;94.04;101725.75;5027160;28;20061;-64
2022/10/11 07:02:40;;;;;;;4.63;1.45;;;;;;;11.63;93.22;101734.22;5026144;28;20048;-64
2022/10/11 07:05:07;;;;;;;3.03;1.20;;;;;;;11.74;92.76;101738.09;5041586;28;20037;-64
2022/10/11 07:07:33;;;;;;;4.35;1.67;;;;;;;11.87;91.80;101742.38;5031842;28;20029;-64
2022/10/11 07:09:59;;;;;;;6.60;1.23;;;;;;;11.69;93.60;101741.78;5034658;28;20064;-64
2022/10/11 07:12:24;;;;;;;2.53;1.40;;;;;;;11.69;93.67;101747.19;5027579;28;20072;-64
2022/10/11 07:14:50;;;;;;;1.80;1.13;;;;;;;11.78;93.87;101745.19;5021899;28;20037;-64
2022/10/11 07:17:15;;;;;;;3.67;1.52;;;;;;;11.91;93.90;101747.88;5031173;28;20124;-64
2022/10/11 07:19:41;;;;;;;3.80;1.50;;;;;;;12.05;94.56;101749.13;5023864;28;20037;-64
2022/10/11 07:22:09;;;;;;;4.00;1.40;;;;;;;12.37;93.46;101745.50;5022151;28;20042;-64
2022/10/11 07:24:35;;;;;;;3.70;1.17;;;;;;;12.51;92.48;101758.66;5033377;28;20418;-64
2022/10/11 07:27:02;;;;;;;2.75;1.27;;;;;;;12.72;93.20;101761.25;5020225;28;20017;-64
2022/10/11 07:29:27;;;;;;;4.82;2.13;;;;;;;12.89;92.94;101755.56;5022730;28;20045;-64
2022/10/11 07:31:53;;;;;;;2.25;1.60;;;;;;;13.08;92.85;101753.03;5028858;28;20021;-64
2022/10/11 07:34:19;;;;;;;1.70;0.98;;;;;;;13.41;91.69;101761.69;5031958;28;20048;-64
2022/10/11 07:36:45;;;;;;;2.85;1.45;;;;;;;13.53;91.01;101756.19;5029371;28;20048;-64
2022/10/11 07:39:11;;;;;;;5.65;1.38;;;;;;;13.78;90.78;101760.31;5031913;28;20379;-65
2022/10/11 07:41:37;;;;;;;5.53;1.00;;;;;;;14.00;89.60;101767.84;5014915;28;20056;-64
2022/10/11 07:44:03;;;;;;;2.72;1.25;;;;;;;14.12;88.81;101770.47;5029517;28;20700;-64
2022/10/11 07:46:29;;;;;;;4.15;1.55;;;;;;;14.38;87.90;101764.53;5031441;28;20033;-64
2022/10/11 07:48:55;;;;;;;0.98;0.73;;;;;;;14.48;87.04;101767.47;5029612;28;20128;-64
2022/10/11 07:51:21;;;;;;;2.25;1.05;;;;;;;14.61;86.13;101770.84;5023369;28;20196;-64
2022/10/11 07:53:53;;;;;;;3.35;1.05;;;;;;;14.66;85.79;101767.06;5022131;28;20108;-64
2022/10/11 07:56:23;;;;;;;;;;;;;;;14.80;84.77;101772.78;5031717;28;20042;-64
2022/10/11 07:58:54;;;;;;;4.10;1.40;;;;;;;14.93;84.30;101776.94;5031818;28;19976;-64
2022/10/11 08:01:19;;;;;;;3.47;1.40;;;;;;;14.84;83.41;101773.66;5014044;28;20081;-64
2022/10/11 08:03:46;;;;;;;2.10;0.75;;;;;;;15.08;83.13;101776.09;5028045;28;20104;-64
2022/10/11 08:06:14;;;;;;;1.77;1.00;;;;;;;15.05;81.78;101787.66;5032232;28;20044;-64
2022/10/11 08:08:40;;;;;;;2.70;1.40;;;;;;;15.19;82.25;101787.97;5033376;28;20419;-64
2022/10/11 08:11:06;;;;;;;6.03;1.17;;;;;;;15.37;81.89;101799.94;5016744;28;20113;-64
2022/10/11 08:13:32;;;;;;;2.40;0.98;;;;;;;15.46;81.87;101789.69;5027001;28;20033;-64
2022/10/11 08:15:58;;;;;;;1.63;0.65;;;;;;;15.54;81.00;101791.38;5020459;28;20033;-64
2022/10/11 08:18:24;;;;;;;4.35;1.10;;;;;;;15.64;80.86;101801.63;5026327;28;20559;-64
2022/10/11 08:20:49;;;;;;;1.85;0.80;;;;;;;15.73;80.73;101801.41;5019129;28;20445;-64
2022/10/11 08:23:16;;;;;;;2.90;1.00;;;;;;;15.79;80.21;101789.91;5031306;28;20102;-64
2022/10/11 08:25:44;;;;;;;4.68;0.85;;;;;;;15.88;79.11;101789.66;5016283;28;20041;-64
2022/10/11 08:28:15;;;;;;;3.67;0.82;;;;;;;15.89;78.83;101797.44;5021158;28;20052;-64
2022/10/11 08:30:47;;;;;;;2.38;1.38;;;;;;;15.93;78.92;101798.28;5031510;28;20034;-64
2022/10/11 08:33:13;;;;;;;0.90;0.70;;;;;;;15.94;79.10;101802.59;5038366;28;20037;-64
2022/10/11 08:35:38;;;;;;;1.90;1.00;;;;;;;16.22;77.95;101805.75;5022584;28;20029;-64
2022/10/11 08:38:04;;;;;;;5.03;0.80;;;;;;;16.29;77.03;101805.09;5022425;28;20452;-64
2022/10/11 08:40:29;;;;;;;6.13;0.82;;;;;;;16.22;77.44;101805.75;5022115;28;20034;-64
2022/10/11 08:43:26;;;;;;;5.45;0.95;;;;;;;16.17;77.24;101803.34;5019453;28;20034;-64
2022/10/11 08:45:55;;;;;;;0.93;0.60;;;;;;;16.33;77.91;101805.94;5032405;28;20613;-64
2022/10/11 08:48:33;;;;;;;3.30;0.95;;;;;;;16.54;77.29;101803.56;5026460;28;20046;-64
2022/10/11 08:51:00;;;;;;;1.83;0.52;;;;;;;16.79;76.50;101807.41;5020648;28;20046;-64
2022/10/11 08:53:31;;;;;;;5.40;0.70;;;;;;;16.93;75.67;101807.63;5029434;28;20121;-64
2022/10/11 08:55:56;;;;;;;;;;;;;;;17.06;74.03;101810.88;5027987;28;20038;-64
2022/10/11 08:58:50;;;;;;;0.90;0.43;;;;;;;17.07;73.34;101807.00;5014403;28;19920;-64
2022/10/11 09:01:20;;;;;;;2.72;0.63;;;;;;;17.17;73.11;101811.78;5017395;28;20041;-64
2022/10/11 09:03:47;;;;;;;3.28;0.88;;;;;;;17.33;72.93;101814.31;5030379;28;20045;-64
2022/10/11 09:06:22;;;;;;;2.53;0.60;;;;;;;17.57;72.77;101802.94;5022044;28;20037;-64
2022/10/11 09:09:30;;;;;;;2.92;0.90;;;;;;;17.72;71.21;101815.53;5024338;28;20450;-64
2022/10/11 09:12:14;;;;;;;1.23;0.30;;;;;;;17.85;70.33;101814.09;4994972;28;20527;-64
2022/10/11 09:14:45;;;;;;;2.40;0.70;;;;;;;17.97;69.40;101816.56;5028790;28;20056;-64
2022/10/11 09:17:32;;;;;;;1.45;0.50;;;;;;;18.08;69.15;101819.41;5026855;28;20030;-64
2022/10/11 09:20:29;;;;;;;1.02;0.30;;;;;;;18.26;68.57;101812.91;5022819;28;20516;-65
2022/10/11 09:23:00;;;;;;;2.83;0.75;;;;;;;18.35;67.32;101824.28;5030464;28;20124;-65
2022/10/11 09:25:38;;;;;;;3.25;0.25;;;;;;;18.48;66.38;101822.06;5018245;28;20056;-65
2022/10/11 09:28:13;;;;;;;3.33;1.10;;;;;;;18.39;65.89;101824.31;5013975;28;20426;-64
2022/10/11 09:30:46;;;;;;;5.00;0.70;;;;;;;18.46;66.30;101824.41;5018386;28;20041;-64
2022/10/11 09:33:16;;;;;;;1.95;0.20;;;;;;;18.45;66.32;101825.53;5020728;28;20027;-64
2022/10/11 09:35:46;;;;;;;0.88;0.28;;;;;;;18.47;66.84;101824.00;5019540;28;20025;-65
2022/10/11 09:38:33;;;;;;;2.08;0.63;;;;;;;18.56;65.56;101821.72;5012023;28;20667;-65
2022/10/11 09:41:05;;;;;;;4.50;1.00;;;;;;;18.62;65.31;101816.72;5013905;28;20061;-65
2022/10/11 09:43:31;;;;;;;6.30;0.45;;;;;;;18.66;63.77;101822.97;5014614;28;20038;-65
2022/10/11 09:45:56;;;;;;;2.80;0.52;;;;;;;18.77;62.91;101827.34;5013466;28;20117;-64
2022/10/11 09:48:26;;;;;;;1.02;0.40;;;;;;;18.74;61.96;101825.34;5012813;28;20104;-64
2022/10/11 09:50:57;;;;;;;1.95;0.40;;;;;;;18.70;61.46;101821.81;5011237;28;20034;-64
2022/10/11 09:53:48;;;;;;;6.10;0.63;;;;;;;18.69;61.92;101831.19;5017190;28;20459;-64
2022/10/11 09:56:14;;;;;;;2.25;0.40;;;;;;;18.73;62.40;101831.19;5012131;28;20041;-64
2022/10/11 09:58:39;;;;;;;2.40;0.40;;;;;;;18.73;62.62;101839.38;5027681;28;20037;-64
2022/10/11 10:01:08;;;;;;;3.70;0.30;;;;;;;18.76;62.51;101831.22;5019895;28;20030;-64
2022/10/11 10:03:36;;;;;;;0.70;0.40;;;;;;;18.85;61.50;101828.16;5016304;28;20057;-64
2022/10/11 10:06:23;;;;;;;0.85;0.47;;;;;;;18.92;61.26;101831.72;5022561;28;20029;-65
2022/10/11 10:08:49;;;;;;;3.47;0.70;;;;;;;18.86;61.16;101844.16;5031955;28;20025;-64
2022/10/11 10:11:16;;;;;;;5.60;1.05;;;;;;;18.82;61.41;101839.81;5027714;28;20040;-64
2022/10/11 10:13:44;;;;;;;5.82;0.70;;;;;;;18.94;61.07;101842.25;5012134;28;20033;-64
2022/10/11 10:16:29;;;;;;;2.88;0.55;;;;;;;18.85;60.92;101847.28;5023566;28;20030;-64
2022/10/11 10:19:00;;;;;;;1.75;0.38;;;;;;;18.83;61.14;101841.41;5018121;28;20036;-64
2022/10/11 10:21:29;;;;;;;2.30;0.50;;;;;;;18.90;60.89;101847.69;5018074;28;20057;-64
2022/10/11 10:23:58;;;;;;;6.68;0.65;;;;;;;19.01;60.14;101855.16;5029818;28;20383;-64
2022/10/11 10:26:25;;;;;;;0.77;0.22;;;;;;;19.17;59.26;101855.59;5037168;28;20033;-64
2022/10/11 10:28:57;;;;;;;0.63;0.30;;;;;;;19.04;58.89;101844.25;5023681;28;20036;-63
2022/10/11 10:31:38;;;;;;;3.90;0.28;;;;;;;19.09;59.19;101852.06;5031431;28;20033;-64
2022/10/11 10:34:13;;;;;;;0.80;0.40;;;;;;;19.07;59.66;101850.88;5035677;28;20089;-65
2022/10/11 10:36:44;;;;;;;2.83;0.68;;;;;;;19.11;59.49;101847.00;5037818;28;20508;-64
2022/10/11 10:39:25;;;;;;;2.08;0.50;;;;;;;19.19;59.22;101856.00;5033052;28;20030;-64
2022/10/11 10:41:50;;;;;;;6.32;0.30;;;;;;;19.12;60.31;101854.03;5019014;28;20433;-65
2022/10/11 10:44:16;;;;;;;5.10;0.50;;;;;;;19.17;59.00;101853.66;5021739;28;20091;-64
2022/10/11 10:46:51;;;;;;;4.90;1.48;;;;;;;19.32;58.01;101849.03;5035788;28;20065;-65
2022/10/11 10:49:43;;;;;;;1.27;0.57;;;;;;;19.21;58.32;101849.00;5041700;28;20048;-65
2022/10/11 10:52:46;;;;;;;1.95;0.40;;;;;;;19.21;57.84;101859.16;5030918;28;20049;-65
2022/10/11 10:55:17;;;;;;;1.90;0.93;;;;;;;19.13;58.55;101861.06;5022122;28;20092;-65
2022/10/11 10:58:11;;;;;;;1.75;0.45;;;;;;;19.06;59.40;101858.31;5026457;28;20112;-64
2022/10/11 11:00:46;;;;;;;1.98;0.40;;;;;;;19.09;59.83;101854.00;5026367;28;20128;-64
2022/10/11 11:03:19;;;;;;;3.47;0.38;;;;;;;19.15;59.99;101858.72;5031220;28;20033;-64
2022/10/11 11:05:59;;;;;;;1.05;0.35;;;;;;;19.23;58.93;101860.34;5031391;28;20111;-64
2022/10/11 11:08:24;;;;;;;3.20;0.70;;;;;;;19.13;59.95;101863.78;5025925;28;20095;-64
2022/10/11 11:11:05;;;;;;;3.55;0.68;;;;;;;19.12;59.83;101861.44;5016759;28;20128;-64
2022/10/11 11:13:49;;;;;;;3.70;0.60;;;;;;;18.99;60.28;101860.22;5012045;28;20083;-64
2022/10/11 11:16:22;;;;;;;2.92;0.60;;;;;;;19.02;60.51;101870.38;5015705;28;20280;-64
2022/10/11 11:18:58;;;;;;;2.42;0.50;;;;;;;19.02;60.08;101862.97;5018564;28;20034;-64
2022/10/11 11:21:45;;;;;;;1.70;0.30;;;;;;;18.91;59.70;101870.31;5017644;28;20044;-64
2022/10/11 11:24:49;;;;;;;3.08;0.77;;;;;;;19.01;59.35;101864.13;5030125;28;20112;-64
2022/10/11 11:27:44;;;;;;;2.50;0.60;;;;;;;19.00;59.71;101861.78;5018303;28;20037;-64
2022/10/11 11:30:21;;;;;;;0.93;0.75;;;;;;;19.00;60.32;101859.03;5014653;28;20029;-64
2022/10/11 11:33:08;;;;;;;4.40;0.95;;;;;;;19.05;60.40;101862.19;5030007;28;20263;-64
2022/10/11 11:35:41;;;;;;;1.10;0.43;;;;;;;19.16;59.82;101856.78;5026225;28;20123;-64
2022/10/11 11:38:15;;;;;;;3.22;0.60;;;;;;;19.23;59.37;101868.53;5024661;28;20041;-64
2022/10/11 11:40:45;;;;;;;4.97;0.60;;;;;;;19.09;59.78;101864.94;5018663;28;20025;-64